Time;durP1;ratioP1;P1;durP2;ratioP2;P2;SDS_P1;SDS_P2;PMS_P1;PMS_P2;Temp;Humidity;BMP_temperature;BMP_pressure;BME280_temperature;BME280_humidity;BME280_pressure;Samples;Min_cycle;Max_cycle;Signal;HPM_P1;HPM_P2
2023/04/06 00:00:37;;;;;;;7.03;5.97;;;;;;;3.66;59.12;98970.94;5057559;27;103083;-58
2023/04/06 00:03:05;;;;;;;9.20;7.40;;;;;;;3.17;60.57;98963.34;5054490;27;104107;-58
2023/04/06 00:05:33;;;;;;;9.80;7.13;;;;;;;3.05;61.58;98958.59;5057339;27;103210;-59
2023/04/06 00:08:02;;;;;;;9.40;6.43;;;;;;;3.20;61.56;98958.00;5051930;27;102885;-59
2023/04/06 00:10:30;;;;;;;10.90;7.53;;;;;;;3.14;61.28;98953.88;5037075;27;103897;-59
2023/04/06 00:12:59;;;;;;;8.97;7.57;;;;;;;3.07;61.18;98967.19;5047340;27;104088;-59
2023/04/06 00:15:27;;;;;;;8.53;6.80;;;;;;;3.19;61.39;98958.91;5053428;27;103207;-59
2023/04/06 00:17:57;;;;;;;9.47;7.20;;;;;;;2.88;61.70;98957.47;5056898;27;102710;-59
2023/04/06 00:20:25;;;;;;;8.83;6.53;;;;;;;3.14;61.60;98947.81;5059884;27;103993;-59
2023/04/06 00:22:53;;;;;;;8.13;6.10;;;;;;;3.04;61.09;98954.25;5053704;27;104092;-59
2023/04/06 00:25:22;;;;;;;6.63;5.80;;;;;;;3.22;61.25;98950.97;5037795;27;104167;-59
2023/04/06 00:27:50;;;;;;;10.60;6.97;;;;;;;2.91;61.25;98952.13;5049426;27;103163;-59
2023/04/06 00:30:18;;;;;;;7.33;6.57;;;;;;;2.66;63.28;98956.56;5046622;27;102822;-59
2023/04/06 00:32:46;;;;;;;9.57;6.90;;;;;;;2.56;63.95;98955.16;5039325;27;104051;-59
2023/04/06 00:35:15;;;;;;;6.10;5.50;;;;;;;2.96;62.37;98954.56;5039980;27;103252;-59
2023/04/06 00:37:43;;;;;;;5.53;4.93;;;;;;;3.08;62.09;98948.88;5052328;27;102650;-59
2023/04/06 00:40:14;;;;;;;8.17;7.20;;;;;;;3.06;61.77;98955.06;5034520;27;102972;-59
2023/04/06 00:42:42;;;;;;;11.80;7.20;;;;;;;2.77;63.90;98943.97;5034638;27;104177;-59
2023/04/06 00:45:11;;;;;;;10.27;7.80;;;;;;;1.99;67.52;98954.63;5043851;27;103997;-59
2023/04/06 00:47:39;;;;;;;9.17;7.67;;;;;;;1.77;69.25;98948.44;5036856;27;102752;-58
2023/04/06 00:50:09;;;;;;;8.90;7.17;;;;;;;2.14;67.72;98946.25;5056601;27;103500;-59
2023/04/06 00:52:38;;;;;;;10.03;8.87;;;;;;;2.18;66.89;98950.47;5055479;27;103191;-59
2023/04/06 00:55:09;;;;;;;7.80;7.00;;;;;;;2.44;65.58;98949.56;5036474;27;103485;-59
2023/04/06 00:57:42;;;;;;;8.37;7.40;;;;;;;2.20;66.75;98946.06;5055950;27;102681;-59
2023/04/06 01:00:11;;;;;;;9.03;7.60;;;;;;;2.32;66.01;98940.41;5041264;27;102730;-59
2023/04/06 01:02:40;;;;;;;9.50;7.77;;;;;;;2.34;65.43;98938.59;5043423;27;103759;-59
2023/04/06 01:05:10;;;;;;;9.57;8.57;;;;;;;2.24;66.41;98942.44;5033364;27;103316;-59
2023/04/06 01:08:00;;;;;;;11.77;7.70;;;;;;;2.52;64.70;98942.31;5057164;27;102644;-58
2023/04/06 01:10:30;;;;;;;10.67;7.73;;;;;;;2.02;66.60;98939.69;5056830;27;102765;-59
2023/04/06 01:13:05;;;;;;;9.67;8.43;;;;;;;1.34;69.09;98943.75;5032179;27;104206;-59
2023/04/06 01:15:47;;;;;;;11.50;8.83;;;;;;;1.52;69.58;98941.38;5051677;27;103218;-59
2023/04/06 01:18:26;;;;;;;;;;;;;;;1.98;68.90;98940.72;5030472;27;103103;-59
2023/04/06 01:21:03;;;;;;;;;;;;;;;2.33;67.15;98934.28;5047275;27;102740;-59
2023/04/06 01:23:32;;;;;;;8.13;6.10;;;;;;;2.58;65.46;98932.50;5030485;27;103983;-58
2023/04/06 01:26:00;;;;;;;6.47;5.77;;;;;;;2.56;64.99;98929.09;5039375;27;104241;-59
2023/04/06 01:28:30;;;;;;;9.00;8.10;;;;;;;2.23;66.95;98932.91;5039235;27;102683;-59
2023/04/06 01:31:11;;;;;;;9.30;7.73;;;;;;;1.89;68.79;98933.22;5046289;27;102866;-58
2023/04/06 01:33:45;;;;;;;8.73;6.97;;;;;;;2.27;66.87;98929.31;5047328;27;103189;-58
2023/04/06 01:36:17;;;;;;;9.33;6.57;;;;;;;2.39;66.44;98930.63;5040859;27;103441;-59
2023/04/06 01:38:51;;;;;;;8.17;7.17;;;;;;;2.44;65.80;98924.34;5033119;27;103773;-58
2023/04/06 01:41:24;;;;;;;12.17;8.10;;;;;;;2.27;66.09;98927.53;5050443;27;102769;-58
2023/04/06 01:43:54;;;;;;;12.07;8.63;;;;;;;1.87;68.98;98923.75;5035412;27;103257;-58
2023/04/06 01:46:26;;;;;;;8.97;7.47;;;;;;;1.82;69.82;98923.06;5044085;27;105421;-59
2023/04/06 01:48:55;;;;;;;12.00;9.10;;;;;;;1.92;69.12;98921.84;5045844;27;104563;-59
2023/04/06 01:51:34;;;;;;;9.63;7.73;;;;;;;2.16;68.16;98913.19;5048843;27;103862;-59
2023/04/06 01:54:07;;;;;;;10.03;7.73;;;;;;;2.22;67.28;98912.94;5041290;27;104886;-59
2023/04/06 01:56:52;;;;;;;10.37;8.70;;;;;;;1.96;68.63;98913.03;5038047;27;103145;-59
2023/04/06 01:59:40;;;;;;;8.40;6.80;;;;;;;2.21;67.27;98913.88;5046292;27;102749;-59
2023/04/06 02:02:17;;;;;;;10.27;7.50;;;;;;;2.16;67.56;98905.38;5027865;27;102774;-59
2023/04/06 02:04:54;;;;;;;9.73;7.77;;;;;;;2.12;67.27;98915.03;5046814;27;104148;-59
2023/04/06 02:07:22;;;;;;;9.00;7.77;;;;;;;2.08;67.59;98909.97;5027685;27;103249;-59
2023/04/06 02:09:55;;;;;;;9.43;7.90;;;;;;;2.12;68.02;98917.66;5028221;27;102641;-59
2023/04/06 02:12:28;;;;;;;10.10;6.77;;;;;;;2.21;67.48;98917.34;5053239;27;104231;-59
2023/04/06 02:14:56;;;;;;;10.00;8.03;;;;;;;2.27;66.61;98906.66;5033564;27;104249;-59
2023/04/06 02:17:24;;;;;;;8.53;7.60;;;;;;;2.17;66.92;98909.66;5029408;27;103420;-59
2023/04/06 02:19:52;;;;;;;9.23;7.93;;;;;;;2.09;68.10;98911.69;5026707;27;103188;-59
2023/04/06 02:22:20;;;;;;;11.03;8.70;;;;;;;1.87;68.16;98908.13;5026333;27;103849;-58
2023/04/06 02:24:48;;;;;;;10.03;8.57;;;;;;;1.61;70.30;98904.63;5048873;27;104179;-58
2023/04/06 02:27:18;;;;;;;10.17;7.70;;;;;;;1.75;69.64;98907.63;5033846;27;103191;-59
2023/04/06 02:29:47;;;;;;;8.83;7.77;;;;;;;1.95;68.96;98908.72;5033055;27;102734;-59
2023/04/06 02:32:19;;;;;;;8.47;7.27;;;;;;;1.96;68.18;98900.00;5030058;27;104083;-59
2023/04/06 02:34:49;;;;;;;7.23;6.43;;;;;;;2.01;68.13;98901.53;5027454;27;103481;-59
2023/04/06 02:37:20;;;;;;;10.33;7.17;;;;;;;2.09;67.38;98912.53;5026562;27;103229;-58
2023/04/06 02:39:48;;;;;;;8.83;6.37;;;;;;;2.06;67.69;98899.63;5047954;27;102674;-59
2023/04/06 02:42:18;;;;;;;7.10;5.90;;;;;;;2.15;67.59;98903.66;5049555;27;102647;-59
2023/04/06 02:44:49;;;;;;;7.30;6.60;;;;;;;2.13;67.31;98897.66;5033224;27;103823;-58
2023/04/06 02:47:21;;;;;;;9.57;7.97;;;;;;;1.95;68.14;98901.75;5029870;27;104294;-59
2023/04/06 02:49:51;;;;;;;11.63;8.00;;;;;;;1.90;68.38;98900.19;5034376;27;102662;-59
2023/04/06 02:52:19;;;;;;;8.10;7.10;;;;;;;1.81;69.31;98898.75;5054271;27;104043;-59
2023/04/06 02:54:47;;;;;;;9.13;7.23;;;;;;;1.70;69.97;98890.47;5027384;27;103282;-59
2023/04/06 02:57:25;;;;;;;8.47;7.03;;;;;;;1.88;68.77;98892.41;5027090;27;103077;-58
2023/04/06 02:59:53;;;;;;;9.00;7.13;;;;;;;1.96;67.58;98889.56;5041216;27;103143;-58
2023/04/06 03:02:27;;;;;;;10.43;7.73;;;;;;;1.86;68.25;98899.44;5039246;27;102797;-59
2023/04/06 03:05:05;;;;;;;10.10;7.80;;;;;;;1.61;70.16;98894.22;5035482;27;103257;-58
2023/04/06 03:07:37;;;;;;;10.83;8.40;;;;;;;1.19;71.68;98900.81;5031028;27;104012;-58
2023/04/06 03:10:10;;;;;;;;;;;;;;;1.14;72.80;98898.38;5036474;27;102745;-58
2023/04/06 03:12:41;;;;;;;9.40;8.50;;;;;;;1.82;70.41;98902.22;5056834;27;102673;-58
2023/04/06 03:15:18;;;;;;;9.45;8.52;;;;;;;2.38;67.95;98890.66;5043273;27;103705;-58
2023/04/06 03:17:51;;;;;;;9.33;7.57;;;;;;;2.28;67.18;98891.88;5040046;27;103247;-59
2023/04/06 03:20:48;;;;;;;8.95;8.13;;;;;;;2.55;66.35;98890.88;5041273;27;103287;-58
2023/04/06 03:23:20;;;;;;;8.17;6.83;;;;;;;2.23;66.46;98888.59;5044854;27;104114;-58
2023/04/06 03:25:53;;;;;;;9.53;8.33;;;;;;;1.81;68.26;98892.69;5035183;27;103227;-58
2023/04/06 03:28:23;;;;;;;9.63;8.60;;;;;;;1.47;70.09;98895.56;5045836;27;103632;-58
2023/04/06 03:30:57;;;;;;;10.30;7.60;;;;;;;1.54;70.71;98894.47;5039847;27;102677;-58
2023/04/06 03:33:40;;;;;;;9.77;8.47;;;;;;;1.01;71.83;98893.59;5028570;27;102797;-58
2023/04/06 03:36:14;;;;;;;10.73;7.73;;;;;;;1.20;72.58;98897.31;5032951;27;103229;-59
2023/04/06 03:38:44;;;;;;;9.70;8.27;;;;;;;1.20;72.41;98892.13;5032152;27;105217;-58
2023/04/06 03:41:14;;;;;;;13.17;8.93;;;;;;;1.19;71.54;98900.81;5037516;27;102686;-58
2023/04/06 03:43:55;;;;;;;9.13;7.23;;;;;;;1.38;71.61;98896.72;5031229;27;102916;-59
2023/04/06 03:46:23;;;;;;;7.17;6.40;;;;;;;1.59;70.62;98903.84;5052180;27;103214;-58
2023/04/06 03:48:54;;;;;;;8.73;7.27;;;;;;;1.59;69.84;98901.25;5039994;27;102974;-58
2023/04/06 03:51:25;;;;;;;8.77;7.90;;;;;;;1.42;70.74;98907.91;5051008;27;102600;-58
2023/04/06 03:53:53;;;;;;;10.67;8.80;;;;;;;0.99;72.96;98904.03;5049436;27;102711;-58
2023/04/06 03:56:21;;;;;;;10.17;8.47;;;;;;;0.87;73.86;98907.00;5050391;27;103220;-58
2023/04/06 03:58:50;;;;;;;9.13;8.23;;;;;;;0.99;73.54;98908.38;5049375;27;103190;-58
2023/04/06 04:01:22;;;;;;;10.40;8.90;;;;;;;0.80;74.10;98918.50;5037955;27;103101;-59
2023/04/06 04:03:51;;;;;;;10.33;8.63;;;;;;;0.81;74.58;98914.16;5048005;27;103332;-59
2023/04/06 04:06:19;;;;;;;10.90;8.73;;;;;;;0.97;73.69;98915.41;5058698;27;103170;-59
2023/04/06 04:08:47;;;;;;;9.73;7.67;;;;;;;1.07;73.11;98922.00;5052080;27;103235;-58
2023/04/06 04:11:16;;;;;;;12.00;8.10;;;;;;;1.32;72.11;98909.94;5034346;27;103694;-58
2023/04/06 04:13:47;;;;;;;11.00;8.13;;;;;;;1.51;70.98;98916.28;5036282;27;102753;-59
2023/04/06 04:16:15;;;;;;;8.63;7.67;;;;;;;1.30;70.42;98922.16;5050635;27;103310;-58
2023/04/06 04:18:47;;;;;;;9.40;8.00;;;;;;;1.20;71.83;98920.75;5047041;27;106473;-59
2023/04/06 04:21:15;;;;;;;9.80;7.70;;;;;;;0.96;73.30;98918.88;5057742;27;102771;-59
2023/04/06 04:23:43;;;;;;;7.90;6.90;;;;;;;1.23;72.53;98918.06;5035210;27;102936;-58
2023/04/06 04:26:11;;;;;;;11.03;8.23;;;;;;;1.25;70.97;98921.44;5054231;27;103166;-58
2023/04/06 04:28:40;;;;;;;10.00;8.70;;;;;;;0.79;73.25;98926.34;5036672;27;103193;-59
2023/04/06 04:31:08;;;;;;;11.23;8.47;;;;;;;0.53;75.14;98932.31;5057477;27;102737;-59
2023/04/06 04:33:36;;;;;;;10.80;8.67;;;;;;;0.34;76.32;98934.56;5058297;27;102718;-59
2023/04/06 04:36:11;;;;;;;14.80;9.97;;;;;;;0.50;75.88;98935.84;5036071;27;103391;-58
2023/04/06 04:38:42;;;;;;;11.70;9.47;;;;;;;0.77;75.12;98928.13;5060038;27;103310;-59
2023/04/06 04:41:11;;;;;;;10.47;8.43;;;;;;;0.99;74.47;98921.41;5038142;27;102795;-59
2023/04/06 04:43:43;;;;;;;10.27;8.57;;;;;;;0.85;74.16;98927.00;5051776;27;104033;-59
2023/04/06 04:46:14;;;;;;;14.20;10.20;;;;;;;0.79;75.37;98926.34;5027624;27;104935;-59
2023/04/06 04:48:43;;;;;;;11.17;9.97;;;;;;;0.63;76.48;98931.16;5039990;27;103191;-59
2023/04/06 04:51:13;;;;;;;12.80;9.80;;;;;;;0.67;76.45;98937.97;5053768;27;102666;-59
2023/04/06 04:53:54;;;;;;;12.57;9.90;;;;;;;0.86;76.73;98935.69;5041090;27;102781;-58
2023/04/06 04:56:28;;;;;;;14.23;10.77;;;;;;;0.94;76.91;98928.50;5009218;27;103516;-58
2023/04/06 04:59:05;;;;;;;15.90;10.63;;;;;;;1.00;76.02;98930.91;5048077;27;103204;-58
2023/04/06 05:01:37;;;;;;;11.53;10.33;;;;;;;0.80;76.92;98939.31;5005505;27;102821;-58
2023/04/06 05:04:25;;;;;;;12.40;10.37;;;;;;;0.98;76.57;98932.72;5042096;27;102758;-57
2023/04/06 05:07:05;;;;;;;15.40;11.17;;;;;;;1.15;75.35;98930.47;5027451;27;103428;-59
2023/04/06 05:09:34;;;;;;;10.93;9.07;;;;;;;1.31;74.60;98934.28;5038363;27;102998;-58
2023/04/06 05:12:02;;;;;;;12.60;10.40;;;;;;;1.00;75.60;98936.13;5031598;27;102677;-57
2023/04/06 05:14:36;;;;;;;16.57;10.90;;;;;;;0.93;76.53;98934.59;5034127;27;103011;-58
2023/04/06 05:17:08;;;;;;;19.13;11.10;;;;;;;0.70;77.61;98942.22;5031728;27;105287;-57
2023/04/06 05:19:36;;;;;;;13.07;10.67;;;;;;;0.80;77.61;98943.66;5032424;27;103419;-58
2023/04/06 05:22:06;;;;;;;16.40;11.57;;;;;;;0.90;76.99;98945.09;5029641;27;102776;-57
2023/04/06 05:24:36;;;;;;;15.80;11.43;;;;;;;0.99;77.15;98945.66;5023230;27;102889;-57
2023/04/06 05:27:07;;;;;;;15.03;10.90;;;;;;;1.22;75.46;98952.78;5030659;27;104970;-57
2023/04/06 05:29:35;;;;;;;14.77;11.60;;;;;;;1.25;75.92;98947.47;5038245;27;104124;-58
2023/04/06 05:32:04;;;;;;;15.67;10.60;;;;;;;1.19;75.59;98958.06;5036118;27;102650;-58
2023/04/06 05:34:33;;;;;;;14.83;11.20;;;;;;;1.17;76.37;98955.53;5034162;27;102760;-57
2023/04/06 05:37:05;;;;;;;12.73;10.23;;;;;;;1.31;75.83;98946.44;5032698;27;105337;-58
2023/04/06 05:39:34;;;;;;;11.80;10.37;;;;;;;1.38;75.79;98953.13;5030354;27;104140;-58
2023/04/06 05:42:05;;;;;;;12.90;11.33;;;;;;;1.61;74.71;98961.94;5033723;27;102656;-58
2023/04/06 05:44:56;;;;;;;16.87;12.30;;;;;;;1.36;75.97;98954.94;5033283;27;102710;-59
2023/04/06 05:47:24;;;;;;;14.53;10.80;;;;;;;1.69;74.40;98965.13;5028952;27;105172;-59
2023/04/06 05:50:01;;;;;;;14.57;10.87;;;;;;;1.53;75.96;98956.13;5019491;27;103233;-59
2023/04/06 05:52:38;;;;;;;13.03;11.07;;;;;;;1.59;75.93;98961.16;5030092;27;102765;-59
2023/04/06 05:55:07;;;;;;;15.10;11.50;;;;;;;1.40;75.65;98966.97;5050136;27;102642;-59
2023/04/06 05:57:39;;;;;;;15.43;11.73;;;;;;;1.47;76.08;98956.31;5034103;27;103823;-59
2023/04/06 06:00:09;;;;;;;17.17;12.23;;;;;;;1.51;75.64;98959.69;5033465;27;103113;-59
2023/04/06 06:02:48;;;;;;;16.60;11.83;;;;;;;1.47;76.35;98958.06;5029133;27;105058;-59
2023/04/06 06:05:22;;;;;;;16.33;11.90;;;;;;;1.66;75.76;98962.63;5030636;27;102745;-59
2023/04/06 06:07:53;;;;;;;14.73;11.57;;;;;;;1.61;75.92;98967.16;5034880;27;103297;-57
2023/04/06 06:10:21;;;;;;;14.60;11.33;;;;;;;1.92;74.83;98971.34;5034164;27;104193;-57
2023/04/06 06:12:50;;;;;;;16.67;12.50;;;;;;;1.92;74.16;98966.13;5045122;27;102655;-57
2023/04/06 06:15:18;;;;;;;20.37;12.53;;;;;;;2.08;74.28;98976.00;5054802;27;104245;-57
2023/04/06 06:17:48;;;;;;;13.90;10.60;;;;;;;2.50;73.50;98973.66;5055494;27;104071;-57
2023/04/06 06:20:16;;;;;;;12.33;9.87;;;;;;;2.88;72.20;98973.13;5041734;27;103198;-57
2023/04/06 06:22:45;;;;;;;17.07;12.00;;;;;;;3.18;70.45;98962.41;5042480;27;102603;-57
2023/04/06 06:25:19;;;;;;;18.87;12.67;;;;;;;3.11;71.02;98968.81;5038641;27;102789;-57
2023/04/06 06:27:48;;;;;;;17.07;11.40;;;;;;;3.19;70.95;98964.13;5037325;27;104046;-57
2023/04/06 06:30:19;;;;;;;13.87;9.50;;;;;;;3.36;70.16;98966.94;5039807;27;105439;-57
2023/04/06 06:32:50;;;;;;;14.63;11.70;;;;;;;3.10;70.86;98962.72;5035593;27;102648;-57
2023/04/06 06:35:20;;;;;;;13.10;9.70;;;;;;;3.85;68.71;98961.44;5047349;27;102953;-57
2023/04/06 06:37:49;;;;;;;13.37;10.67;;;;;;;3.82;67.96;98958.09;5036475;27;104064;-57
2023/04/06 06:40:23;;;;;;;11.30;9.20;;;;;;;4.20;66.65;98964.34;5037246;27;103146;-57
2023/04/06 06:42:54;;;;;;;15.60;11.53;;;;;;;4.01;66.17;98964.28;5025012;27;102685;-57
2023/04/06 06:45:36;;;;;;;16.73;11.70;;;;;;;4.36;66.33;98968.88;5041936;27;104119;-57
2023/04/06 06:48:07;;;;;;;13.63;10.23;;;;;;;4.38;65.22;98974.88;5059538;27;104284;-57
2023/04/06 06:50:37;;;;;;;15.97;10.33;;;;;;;4.27;66.43;98971.00;5056565;27;103339;-57
2023/04/06 06:53:07;;;;;;;13.43;9.37;;;;;;;4.88;63.92;98975.28;5042240;27;102672;-57
2023/04/06 06:55:37;;;;;;;14.80;9.07;;;;;;;5.07;63.73;98968.28;5062032;27;104186;-57
2023/04/06 06:58:07;;;;;;;13.10;11.27;;;;;;;5.03;63.22;98964.09;5047399;27;103555;-57
2023/04/06 07:00:36;;;;;;;16.70;11.50;;;;;;;5.14;63.74;98974.94;5064123;27;103206;-57
2023/04/06 07:03:05;;;;;;;13.53;11.20;;;;;;;5.39;62.05;98963.34;5037926;27;102786;-57
2023/04/06 07:05:34;;;;;;;13.67;11.27;;;;;;;5.23;61.14;98964.03;5061575;27;102985;-57
2023/04/06 07:08:03;;;;;;;15.13;10.73;;;;;;;5.58;61.58;98967.63;5045357;27;103872;-58
2023/04/06 07:10:31;;;;;;;14.93;10.90;;;;;;;5.89;59.61;98972.25;5065903;27;103186;-57
2023/04/06 07:13:01;;;;;;;19.00;11.87;;;;;;;5.92;59.30;98969.50;5042665;27;102732;-57
2023/04/06 07:15:30;;;;;;;12.10;9.73;;;;;;;6.01;58.00;98971.63;5045040;27;102961;-57
2023/04/06 07:17:59;;;;;;;11.83;8.53;;;;;;;6.38;57.67;98966.25;5062036;27;103768;-57
2023/04/06 07:20:28;;;;;;;18.60;10.40;;;;;;;6.26;56.82;98966.03;5038224;27;103446;-58
2023/04/06 07:22:58;;;;;;;12.73;9.73;;;;;;;6.31;56.39;98970.13;5061876;27;102776;-57
2023/04/06 07:25:26;;;;;;;18.80;10.27;;;;;;;6.22;56.35;98972.34;5055518;27;103901;-57
2023/04/06 07:27:55;;;;;;;13.03;9.43;;;;;;;6.83;55.67;98972.66;5035963;27;104943;-57
2023/04/06 07:30:27;;;;;;;12.63;10.43;;;;;;;6.69;53.80;98972.53;5043835;27;103220;-57
2023/04/06 07:32:58;;;;;;;13.53;9.83;;;;;;;6.63;54.51;98971.06;5043365;27;102694;-57
2023/04/06 07:35:29;;;;;;;12.47;9.90;;;;;;;7.30;54.40;98968.31;5056979;27;103010;-57
2023/04/06 07:37:59;;;;;;;10.93;9.73;;;;;;;7.75;53.26;98959.66;5038913;27;104979;-58
2023/04/06 07:40:27;;;;;;;12.00;9.63;;;;;;;8.30;52.57;98962.63;5038726;27;103300;-57
2023/04/06 07:42:59;;;;;;;13.00;10.03;;;;;;;8.80;51.42;98962.22;5033481;27;102769;-57
2023/04/06 07:45:29;;;;;;;13.20;8.83;;;;;;;8.80;51.07;98961.38;5044103;27;102775;-58
2023/04/06 07:47:59;;;;;;;11.83;9.23;;;;;;;8.68;51.23;98955.91;5039388;27;103095;-58
2023/04/06 07:50:29;;;;;;;15.20;9.20;;;;;;;9.22;49.86;98966.63;5062811;27;103251;-58
2023/04/06 07:52:58;;;;;;;13.53;9.60;;;;;;;8.57;48.96;98966.22;5045565;27;102784;-58
2023/04/06 07:55:30;;;;;;;15.70;10.20;;;;;;;9.04;50.06;98962.50;5033249;27;102975;-58
2023/04/06 07:57:58;;;;;;;13.73;9.13;;;;;;;9.54;48.55;98959.31;5062687;27;103227;-58
2023/04/06 08:00:28;;;;;;;11.87;9.67;;;;;;;9.18;46.57;98955.41;5066074;27;103247;-57
2023/04/06 08:02:57;;;;;;;12.40;9.77;;;;;;;9.40;47.19;98954.94;5039163;27;102695;-58
2023/04/06 08:05:26;;;;;;;12.07;9.03;;;;;;;9.34;48.02;98952.69;5060697;27;102609;-58
2023/04/06 08:07:54;;;;;;;11.03;8.70;;;;;;;9.75;47.55;98961.41;5041993;27;103267;-57
2023/04/06 08:10:23;;;;;;;10.53;8.97;;;;;;;9.73;47.72;98949.28;5038053;27;104502;-58
2023/04/06 08:12:54;;;;;;;12.53;9.40;;;;;;;9.94;45.65;98952.31;5059933;27;102650;-58
2023/04/06 08:15:22;;;;;;;11.30;9.33;;;;;;;9.99;47.18;98958.13;5041649;27;102730;-58
2023/04/06 08:17:52;;;;;;;14.40;9.70;;;;;;;10.08;45.69;98955.72;5056473;27;103323;-57
2023/04/06 08:20:21;;;;;;;9.33;7.40;;;;;;;11.53;46.11;98950.03;5042122;27;103321;-58
2023/04/06 08:22:49;;;;;;;11.80;9.73;;;;;;;11.83;43.79;98946.97;5060114;27;103969;-59
2023/04/06 08:25:20;;;;;;;10.53;8.97;;;;;;;11.79;45.02;98949.00;5038041;27;103971;-58
2023/04/06 08:27:49;;;;;;;11.90;9.10;;;;;;;12.48;43.91;98947.34;5034592;27;103387;-58
2023/04/06 08:30:18;;;;;;;10.53;8.57;;;;;;;13.10;42.91;98946.03;5062681;27;103859;-59
2023/04/06 08:32:47;;;;;;;10.37;9.20;;;;;;;13.29;42.22;98942.75;5060576;27;102842;-58
2023/04/06 08:35:17;;;;;;;10.20;9.00;;;;;;;13.13;42.24;98943.13;5064474;27;102677;-59
2023/04/06 08:37:46;;;;;;;14.50;9.70;;;;;;;12.68;41.72;98941.38;5061334;27;104038;-58
2023/04/06 08:40:15;;;;;;;10.03;8.60;;;;;;;13.64;41.69;98942.59;5062574;27;103290;-59
2023/04/06 08:42:50;;;;;;;13.33;9.03;;;;;;;14.28;41.02;98938.13;5040846;27;103334;-58
2023/04/06 08:45:21;;;;;;;9.47;8.23;;;;;;;14.62;39.68;98946.81;5053754;27;102663;-58
2023/04/06 08:47:52;;;;;;;12.40;8.97;;;;;;;13.95;40.83;98939.94;5058434;27;103398;-59
2023/04/06 08:50:25;;;;;;;12.03;9.03;;;;;;;13.58;38.15;98943.94;5062817;27;103086;-59
2023/04/06 08:52:53;;;;;;;10.23;8.80;;;;;;;14.36;40.11;98933.91;5051811;27;102691;-59
2023/04/06 08:55:23;;;;;;;10.07;8.63;;;;;;;14.40;38.98;98937.13;5039055;27;103810;-58
2023/04/06 08:57:54;;;;;;;9.63;8.20;;;;;;;15.14;37.88;98925.38;5060152;27;102963;-59
2023/04/06 09:00:24;;;;;;;9.40;8.47;;;;;;;15.48;36.82;98926.78;5054280;27;103209;-59
2023/04/06 09:02:56;;;;;;;8.07;7.27;;;;;;;14.80;36.23;98929.25;5061590;27;102697;-58
2023/04/06 09:05:27;;;;;;;10.00;8.53;;;;;;;15.53;36.25;98907.72;5062398;27;103146;-58
2023/04/06 09:07:56;;;;;;;8.60;7.70;;;;;;;15.92;35.62;98913.94;5064639;27;103025;-58
2023/04/06 09:10:25;;;;;;;9.20;7.87;;;;;;;15.61;36.73;98914.06;5069037;27;103254;-58
2023/04/06 09:13:05;;;;;;;9.27;7.50;;;;;;;17.16;35.81;98912.94;5052265;27;103155;-58
2023/04/06 09:15:34;;;;;;;8.30;6.87;;;;;;;17.64;35.04;98910.91;5041662;27;103074;-56
2023/04/06 09:18:08;;;;;;;10.07;8.00;;;;;;;16.42;34.06;98912.81;5067241;27;103248;-59
2023/04/06 09:20:38;;;;;;;8.53;7.67;;;;;;;16.93;32.92;98904.44;5072428;27;103007;-60
2023/04/06 09:23:06;;;;;;;7.80;7.10;;;;;;;17.07;33.84;98908.47;5038255;27;102705;-60
2023/04/06 09:25:34;;;;;;;8.70;7.40;;;;;;;17.52;32.12;98904.03;5058574;27;102622;-60
2023/04/06 09:28:06;;;;;;;8.53;7.63;;;;;;;17.23;33.55;98904.22;5061167;27;103333;-60
2023/04/06 09:30:36;;;;;;;8.33;7.50;;;;;;;16.36;34.30;98905.41;5061146;27;103193;-61
2023/04/06 09:33:04;;;;;;;8.90;7.37;;;;;;;17.12;33.42;98906.22;5059818;27;102664;-61
2023/04/06 09:35:32;;;;;;;8.00;7.20;;;;;;;17.34;31.32;98900.50;5061454;27;102705;-61
2023/04/06 09:38:12;;;;;;;11.40;8.33;;;;;;;17.10;33.49;98898.34;5066013;27;103374;-61
2023/04/06 09:40:49;;;;;;;9.20;8.30;;;;;;;16.03;31.25;98905.81;5057753;27;103729;-61
2023/04/06 09:43:28;;;;;;;9.70;7.77;;;;;;;15.92;32.16;98908.63;5051234;27;102689;-61
2023/04/06 09:45:57;;;;;;;12.33;8.97;;;;;;;16.36;32.36;98899.22;5056221;27;102815;-61
2023/04/06 09:48:26;;;;;;;10.25;7.97;;;;;;;17.54;32.24;98891.44;5055440;27;103272;-61
2023/04/06 09:51:04;;;;;;;10.13;8.80;;;;;;;17.16;31.70;98892.44;5040154;27;103239;-62
2023/04/06 09:53:38;;;;;;;8.50;7.70;;;;;;;17.45;30.19;98884.28;5055980;27;102677;-60
2023/04/06 09:56:12;;;;;;;11.30;9.38;;;;;;;17.26;33.13;98895.06;5053724;27;102808;-61
2023/04/06 09:58:44;;;;;;;8.68;7.90;;;;;;;16.47;30.81;98889.25;5054108;27;103528;-61
2023/04/06 10:01:18;;;;;;;8.90;7.20;;;;;;;16.37;32.18;98893.75;5053627;27;103247;-61
2023/04/06 10:03:53;;;;;;;8.40;7.07;;;;;;;16.97;32.03;98892.50;5039615;27;103100;-61
2023/04/06 10:06:25;;;;;;;8.57;7.47;;;;;;;16.66;32.32;98886.56;5052992;27;102901;-62
2023/04/06 10:08:57;;;;;;;9.65;8.60;;;;;;;17.15;31.21;98889.91;5040679;27;103668;-61
2023/04/06 10:11:26;;;;;;;11.38;8.95;;;;;;;16.77;28.46;98886.41;5032727;27;103172;-59
2023/04/06 10:13:56;;;;;;;10.95;8.20;;;;;;;14.62;33.42;98883.00;5055469;27;103023;-59
2023/04/06 10:16:25;;;;;;;8.73;7.82;;;;;;;16.22;32.83;98884.53;5057988;27;102775;-58
2023/04/06 10:18:59;;;;;;;9.55;8.65;;;;;;;13.50;32.21;98889.78;5057336;27;103440;-57
2023/04/06 10:21:30;;;;;;;9.07;8.10;;;;;;;14.68;32.30;98887.78;5058897;27;103169;-58
2023/04/06 10:24:01;;;;;;;8.63;7.82;;;;;;;16.38;31.93;98884.78;5030742;27;102701;-58
2023/04/06 10:26:29;;;;;;;8.93;7.50;;;;;;;17.34;31.77;98869.31;5057141;27;103083;-58
2023/04/06 10:29:04;;;;;;;12.82;11.50;;;;;;;17.41;30.87;98874.88;5043676;27;103413;-58
2023/04/06 10:31:33;;;;;;;31.45;28.42;;;;;;;17.95;30.16;98873.97;5054215;27;103486;-58
2023/04/06 10:34:03;;;;;;;71.45;64.60;;;;;;;17.64;29.71;98868.16;5035233;27;102987;-58
2023/04/06 10:36:34;;;;;;;28.42;25.98;;;;;;;17.83;29.85;98876.03;5052830;27;104094;-58
2023/04/06 10:39:06;;;;;;;16.25;14.55;;;;;;;17.58;29.09;98874.09;5054192;27;103321;-58
2023/04/06 10:41:36;;;;;;;11.82;10.63;;;;;;;18.67;29.79;98871.03;5060547;27;103198;-58
2023/04/06 10:44:05;;;;;;;9.82;7.95;;;;;;;18.51;28.77;98862.94;5063659;27;102594;-58
2023/04/06 10:46:35;;;;;;;9.23;8.32;;;;;;;15.91;30.11;98867.00;5059916;27;103669;-58
2023/04/06 10:49:12;;;;;;;8.38;7.57;;;;;;;15.87;31.93;98866.44;5051064;27;103210;-58
2023/04/06 10:51:40;;;;;;;9.27;8.32;;;;;;;16.66;29.77;98851.06;5050299;27;103332;-59
2023/04/06 10:54:13;;;;;;;8.77;7.88;;;;;;;17.02;29.46;98860.03;5049794;27;102788;-60
2023/04/06 10:56:41;;;;;;;7.88;6.88;;;;;;;16.49;30.80;98857.09;5043796;27;103959;-60
2023/04/06 10:59:13;;;;;;;8.82;7.97;;;;;;;16.80;29.67;98864.78;5048321;27;103245;-59
2023/04/06 11:01:46;;;;;;;7.43;6.68;;;;;;;17.05;29.43;98851.72;5052989;27;103234;-59
2023/04/06 11:04:17;;;;;;;8.45;7.35;;;;;;;17.04;29.82;98860.75;5048200;27;102597;-59
2023/04/06 11:06:48;;;;;;;7.97;7.18;;;;;;;17.41;29.25;98858.84;5051981;27;102760;-60
2023/04/06 11:09:29;;;;;;;7.97;6.75;;;;;;;17.57;28.70;98856.38;5056121;27;102976;-59
2023/04/06 11:12:00;;;;;;;8.60;7.70;;;;;;;15.80;31.01;98856.47;5042328;27;104342;-59
2023/04/06 11:14:29;;;;;;;8.43;7.18;;;;;;;16.62;30.32;98853.16;5057139;27;102650;-59
2023/04/06 11:16:58;;;;;;;8.77;7.45;;;;;;;16.88;27.84;98849.84;5050114;27;102680;-59
2023/04/06 11:19:27;;;;;;;8.02;7.22;;;;;;;17.35;27.81;98843.41;5050990;27;103004;-59
2023/04/06 11:21:55;;;;;;;7.38;6.32;;;;;;;18.24;29.60;98837.13;5026282;27;103240;-58
2023/04/06 11:24:30;;;;;;;8.63;7.32;;;;;;;16.47;28.67;98832.41;5047773;27;103068;-58
2023/04/06 11:27:00;;;;;;;9.85;8.40;;;;;;;15.19;28.85;98827.34;5031897;27;103009;-57
2023/04/06 11:29:31;;;;;;;10.77;8.18;;;;;;;15.72;31.76;98829.72;5044627;27;103293;-58
2023/04/06 11:32:02;;;;;;;8.88;7.72;;;;;;;14.38;29.88;98838.91;5037765;27;103177;-60
2023/04/06 11:34:35;;;;;;;8.35;7.18;;;;;;;15.02;31.34;98822.66;5033209;27;102994;-59
2023/04/06 11:37:09;;;;;;;7.35;6.60;;;;;;;16.90;30.44;98818.53;5059624;27;102754;-59
2023/04/06 11:39:41;;;;;;;6.53;5.93;;;;;;;17.14;30.24;98826.84;5052398;27;103079;-58
2023/04/06 11:42:11;;;;;;;7.35;6.65;;;;;;;16.76;28.47;98815.34;5033621;27;103040;-58